TimeEST,TemperatureF,Dew PointF,Humidity,Sea Level PressureIn,VisibilityMPH,Wind Direction,Wind SpeedMPH,Gust SpeedMPH,PrecipitationIn,Events,Conditions,WindDirDegrees,DateUTC
12:52 AM,55.0,41.0,59,29.81,10.0,WSW,12.7,-,N/A,,Clear,240,2013-02-12 05:52:00
1:52 AM,48.0,41.0,77,29.84,10.0,NW,5.8,-,N/A,,Clear,310,2013-02-12 06:52:00
2:52 AM,46.9,37.9,71,29.86,10.0,WNW,8.1,-,N/A,,Clear,300,2013-02-12 07:52:00
3:52 AM,42.1,30.9,65,29.86,10.0,WNW,5.8,-,N/A,,Clear,290,2013-02-12 08:52:00
4:52 AM,37.9,32.0,79,29.89,10.0,West,4.6,-,N/A,,Clear,270,2013-02-12 09:52:00
5:11 AM,39.2,30.2,70,29.90,10.0,West,4.6,-,N/A,,Clear,260,2013-02-12 10:11:00
5:52 AM,39.9,28.9,65,29.91,10.0,West,4.6,-,N/A,,Partly Cloudy,260,2013-02-12 10:52:00
6:52 AM,36.0,28.9,76,29.94,10.0,SW,3.5,-,N/A,,Scattered Clouds,220,2013-02-12 11:52:00
7:52 AM,37.0,32.0,82,29.96,10.0,Calm,Calm,-,N/A,,Scattered Clouds,0,2013-02-12 12:52:00
8:52 AM,50.0,30.0,46,29.98,10.0,West,5.8,-,N/A,,Scattered Clouds,260,2013-02-12 13:52:00
9:52 AM,53.1,28.9,40,30.00,10.0,West,3.5,-,N/A,,Scattered Clouds,280,2013-02-12 14:52:00
10:52 AM,52.0,27.0,38,30.00,10.0,WNW,8.1,-,N/A,,Scattered Clouds,300,2013-02-12 15:52:00
11:52 AM,54.0,26.1,34,30.00,10.0,NW,3.5,-,N/A,,Scattered Clouds,320,2013-02-12 16:52:00
12:52 PM,53.1,28.0,38,29.99,10.0,East,4.6,-,N/A,,Scattered Clouds,80,2013-02-12 17:52:00
1:52 PM,53.1,28.0,38,29.96,10.0,ESE,6.9,-,N/A,,Partly Cloudy,120,2013-02-12 18:52:00
2:52 PM,51.1,28.0,41,29.88,10.0,ESE,11.5,-,N/A,,Partly Cloudy,120,2013-02-12 19:52:00
3:52 PM,51.1,28.0,41,29.95,10.0,SE,8.1,-,N/A,,Partly Cloudy,130,2013-02-12 20:52:00
4:52 PM,50.0,28.9,44,29.95,10.0,SE,8.1,-,N/A,,Scattered Clouds,140,2013-02-12 21:52:00
5:52 PM,48.0,28.0,46,29.95,10.0,SE,3.5,-,N/A,,Mostly Cloudy,140,2013-02-12 22:52:00
6:52 PM,44.1,30.0,58,29.96,10.0,Calm,Calm,-,N/A,,Scattered Clouds,0,2013-02-12 23:52:00
7:52 PM,43.0,33.1,68,29.95,10.0,Calm,Calm,-,N/A,,Partly Cloudy,0,2013-02-13 00:52:00
8:52 PM,42.1,33.1,70,29.93,10.0,ESE,3.5,-,N/A,,Partly Cloudy,110,2013-02-13 01:52:00
9:52 PM,41.0,35.1,79,29.94,10.0,ESE,3.5,-,N/A,,Scattered Clouds,120,2013-02-13 02:52:00
10:52 PM,41.0,35.1,79,29.94,10.0,Calm,Calm,-,N/A,,Scattered Clouds,0,2013-02-13 03:52:00
11:52 PM,41.0,35.1,79,29.94,10.0,NNE,5.8,-,N/A,,Clear,30,2013-02-13 04:52:00